Easton, Ohio
Current Conditions -  °F | °C
As of 5:11 AM on Tuesday 27 Jan 2015 (Local Time) from KBJJ Reporting Station
Light Snow Light Snow  
Wind Chill:   Ceiling: 2300
Heat Index: 15°   Visibility: 4mi
Dew Point: 11°   Wind: 6mph
Humidity: 84%   Direction: 330°NNW
Pressure: 29.91"   Gusts: NA
Location:  40.9626°N, 81.7765°W
Report Text: KBJJ 271011Z AUTO 33005KT 4SM -SN BR FEW017 OVC023 M09/M12 A2991 RMK AO2 P0000 T10941117 TSNO
Loading
Personal Weather Stations






























Interactive Weather Map New forecast layout! Learn more

10-Day Weather Forecast

Advertisements
Track Severe Weather on mobile